Terminal Aerodrome Forecast
Issued by NWS

Home | Current Version | Previous Version | Text Only | Print | Product List | Glossary On
Versions: 1 2 3 4 5 6 7 8 9 10 11 12 13 14 15
916
FTUS41 KCAR 161127
TAFPQI
TAF
KPQI 161127Z 1612/1712 18005KT P6SM OVC080
     FM161600 21010KT P6SM OVC030
     FM161700 22010KT P6SM OVC015
     FM162100 24011KT P6SM OVC025
     FM162300 25009KT P6SM BKN050=

USA.gov is the U.S. government's official web portal to all federal, state and local government web resources and services.